createdAt,value
2018-03-02T00:00:44.701Z,0
2018-03-02T00:01:46.330Z,0
2018-03-02T00:02:47.857Z,0
2018-03-02T00:03:49.361Z,0
2018-03-02T00:04:50.881Z,0
2018-03-02T00:05:52.455Z,0
2018-03-02T00:06:54.001Z,0
2018-03-02T00:07:55.481Z,0
2018-03-02T00:08:56.989Z,0
2018-03-02T00:09:58.636Z,0
2018-03-02T00:11:00.103Z,0
2018-03-02T00:12:01.599Z,0
2018-03-02T00:13:03.193Z,0
2018-03-02T00:14:04.743Z,0
2018-03-02T00:15:06.288Z,0
2018-03-02T00:16:08.601Z,0
2018-03-02T00:17:10.114Z,0
2018-03-02T00:18:11.680Z,0
2018-03-02T00:19:13.179Z,0
2018-03-02T00:20:14.704Z,0
2018-03-02T00:21:16.301Z,0
2018-03-02T00:22:17.803Z,0
2018-03-02T00:23:19.264Z,0
2018-03-02T00:24:20.815Z,0
2018-03-02T00:25:22.384Z,0
2018-03-02T00:26:23.915Z,0
2018-03-02T00:27:25.418Z,0
2018-03-02T00:28:26.918Z,0
2018-03-02T00:29:28.417Z,0
2018-03-02T00:30:29.939Z,0
2018-03-02T00:31:31.398Z,0
2018-03-02T00:32:32.956Z,0
2018-03-02T00:33:34.475Z,0
2018-03-02T00:34:35.914Z,0
2018-03-02T00:35:37.417Z,0
2018-03-02T00:36:39.004Z,0
2018-03-02T00:37:40.465Z,0
2018-03-02T00:38:41.967Z,0
2018-03-02T00:39:43.567Z,0
2018-03-02T00:40:45.075Z,0
2018-03-02T00:41:46.662Z,0
2018-03-02T00:42:48.227Z,0
2018-03-02T00:43:49.731Z,0
2018-03-02T00:44:51.217Z,0
2018-03-02T00:45:52.763Z,0
2018-03-02T00:46:54.282Z,0
2018-03-02T00:47:55.841Z,0
2018-03-02T00:48:57.400Z,0
2018-03-02T00:49:58.921Z,0
2018-03-02T00:51:00.469Z,0
2018-03-02T00:52:02.014Z,0
2018-03-02T00:53:03.495Z,0
2018-03-02T00:54:05.021Z,0
2018-03-02T00:55:06.550Z,0
2018-03-02T00:56:08.044Z,0
2018-03-02T00:57:09.506Z,0
2018-03-02T00:58:10.990Z,0
2018-03-02T00:59:12.474Z,0
2018-03-02T01:00:13.978Z,0
2018-03-02T01:01:15.471Z,0
2018-03-02T01:02:16.944Z,0
2018-03-02T01:03:18.411Z,0
2018-03-02T01:04:20.035Z,0
2018-03-02T01:05:21.513Z,0
2018-03-02T01:06:23.043Z,0
2018-03-02T01:07:24.494Z,0
2018-03-02T01:08:26.012Z,0
2018-03-02T01:09:27.541Z,0
2018-03-02T01:10:29.002Z,0
2018-03-02T01:11:30.508Z,0
2018-03-02T01:12:31.971Z,0
2018-03-02T01:13:33.492Z,0
2018-03-02T01:14:34.967Z,0
2018-03-02T01:15:36.472Z,0
2018-03-02T01:16:37.971Z,0
2018-03-02T01:17:39.482Z,0
2018-03-02T01:18:41.014Z,0
2018-03-02T01:19:42.960Z,0
2018-03-02T01:20:44.469Z,0
2018-03-02T01:21:45.954Z,0
2018-03-02T01:22:47.479Z,0
2018-03-02T01:23:49.080Z,0
2018-03-02T01:24:50.531Z,0
2018-03-02T01:25:52.044Z,0
2018-03-02T01:26:53.555Z,0
2018-03-02T01:27:55.051Z,0
2018-03-02T01:28:56.570Z,0
2018-03-02T01:29:58.111Z,0
2018-03-02T01:30:59.570Z,0
2018-03-02T01:32:01.050Z,0
2018-03-02T01:33:02.585Z,0
2018-03-02T01:34:04.053Z,0
2018-03-02T01:35:05.554Z,0
2018-03-02T01:36:07.001Z,0
2018-03-02T01:37:08.491Z,0
2018-03-02T01:38:09.969Z,0
2018-03-02T01:39:11.480Z,0
2018-03-02T01:40:12.954Z,0
2018-03-02T01:41:14.462Z,0
2018-03-02T01:42:15.932Z,0
2018-03-02T01:43:17.464Z,0
2018-03-02T01:44:18.960Z,0
2018-03-02T01:45:20.458Z,0
2018-03-02T01:46:21.979Z,0
2018-03-02T01:47:23.432Z,0
2018-03-02T01:48:24.944Z,0
2018-03-02T01:49:26.448Z,0
2018-03-02T01:50:27.916Z,0
2018-03-02T01:51:29.352Z,0
2018-03-02T01:52:30.830Z,0
2018-03-02T01:53:32.317Z,0
2018-03-02T01:54:33.791Z,0
2018-03-02T01:55:35.328Z,0
2018-03-02T01:56:36.855Z,0
2018-03-02T01:57:38.346Z,0
2018-03-02T01:58:39.896Z,0
2018-03-02T01:59:41.337Z,0
2018-03-02T02:00:42.830Z,0
2018-03-02T02:01:44.319Z,0
2018-03-02T02:02:45.936Z,0
2018-03-02T02:03:47.441Z,0
2018-03-02T02:04:48.949Z,0
2018-03-02T02:05:50.448Z,0
2018-03-02T02:06:51.975Z,0
2018-03-02T02:07:53.509Z,0
2018-03-02T02:08:54.980Z,0
2018-03-02T02:09:56.512Z,0
2018-03-02T02:10:58.048Z,0
2018-03-02T02:11:59.537Z,0
2018-03-02T02:13:01.017Z,0
2018-03-02T02:14:02.459Z,0
2018-03-02T02:15:03.945Z,0
2018-03-02T02:16:05.443Z,0
2018-03-02T02:17:06.942Z,0
2018-03-02T02:18:08.410Z,0
2018-03-02T02:19:09.890Z,0
2018-03-02T02:20:11.422Z,0
2018-03-02T02:21:12.932Z,0
2018-03-02T02:22:14.460Z,0
2018-03-02T02:23:15.997Z,0
2018-03-02T02:24:17.481Z,0
2018-03-02T02:25:18.935Z,0
2018-03-02T02:26:20.465Z,0
2018-03-02T02:27:22.016Z,0
2018-03-02T02:28:23.465Z,0
2018-03-02T02:29:24.984Z,0
2018-03-02T02:30:26.527Z,0
2018-03-02T02:31:28.085Z,0
2018-03-02T02:32:29.568Z,0
2018-03-02T02:33:30.993Z,0
2018-03-02T02:34:32.489Z,0
2018-03-02T02:35:33.960Z,0
2018-03-02T02:36:35.422Z,0
2018-03-02T02:37:36.916Z,0
2018-03-02T02:38:38.374Z,0
2018-03-02T02:39:39.953Z,0
2018-03-02T02:40:41.455Z,0
2018-03-02T02:41:42.958Z,0
2018-03-02T02:42:44.446Z,0
2018-03-02T02:43:45.928Z,0
2018-03-02T02:44:47.439Z,0
2018-03-02T02:45:48.889Z,0
2018-03-02T02:46:50.453Z,0
2018-03-02T02:47:51.982Z,0
2018-03-02T02:48:53.447Z,0
2018-03-02T02:49:54.948Z,0
2018-03-02T02:50:56.478Z,0
2018-03-02T02:52:01.729Z,0
2018-03-02T02:53:03.001Z,0
2018-03-02T02:54:04.538Z,0
2018-03-02T02:55:05.991Z,0
2018-03-02T02:56:07.503Z,0
2018-03-02T02:57:09.016Z,0
2018-03-02T02:58:10.532Z,0
2018-03-02T02:59:12.066Z,0
2018-03-02T03:00:13.604Z,0
2018-03-02T03:01:15.088Z,0
2018-03-02T03:02:16.610Z,0
2018-03-02T03:03:18.089Z,0
2018-03-02T03:04:19.656Z,0
2018-03-02T03:05:21.126Z,0
2018-03-02T03:06:22.612Z,0
2018-03-02T03:07:24.134Z,0
2018-03-02T03:08:25.685Z,0
2018-03-02T03:09:27.200Z,0
2018-03-02T03:10:28.728Z,0
2018-03-02T03:11:30.210Z,0
2018-03-02T03:12:31.702Z,0
2018-03-02T03:13:33.230Z,0
2018-03-02T03:14:34.741Z,0
2018-03-02T03:15:36.233Z,0
2018-03-02T03:16:37.709Z,0
2018-03-02T03:17:39.176Z,0
2018-03-02T03:18:40.712Z,0
2018-03-02T03:19:42.234Z,0
2018-03-02T03:20:43.710Z,0
2018-03-02T03:21:45.249Z,0
2018-03-02T03:22:46.709Z,0
2018-03-02T03:23:48.229Z,0
2018-03-02T03:24:49.759Z,0
2018-03-02T03:25:51.312Z,0
2018-03-02T03:26:52.795Z,0
2018-03-02T03:27:54.317Z,0
2018-03-02T03:28:55.826Z,0
2018-03-02T03:29:57.305Z,0
2018-03-02T03:30:58.755Z,0
2018-03-02T03:32:00.290Z,0
2018-03-02T03:33:01.779Z,0
2018-03-02T03:34:03.266Z,0
2018-03-02T03:35:04.780Z,0
2018-03-02T03:36:06.302Z,0
2018-03-02T03:37:07.857Z,0
2018-03-02T03:38:09.268Z,0
2018-03-02T03:39:10.773Z,0
2018-03-02T03:40:12.304Z,0
2018-03-02T03:41:13.846Z,0
2018-03-02T03:42:15.338Z,0
2018-03-02T03:43:16.801Z,0
2018-03-02T03:44:18.286Z,0
2018-03-02T03:45:19.741Z,0
2018-03-02T03:46:21.236Z,0
2018-03-02T03:47:22.708Z,0
2018-03-02T03:48:24.205Z,0
2018-03-02T03:49:25.768Z,0
2018-03-02T03:50:27.242Z,0
2018-03-02T03:51:28.731Z,0
2018-03-02T03:52:30.196Z,0
2018-03-02T03:53:31.694Z,0
2018-03-02T03:54:33.200Z,0
2018-03-02T03:55:34.782Z,0
2018-03-02T03:56:36.311Z,0
2018-03-02T03:57:37.799Z,0
2018-03-02T03:58:39.297Z,0
2018-03-02T03:59:40.808Z,0
2018-03-02T04:00:42.374Z,0
2018-03-02T04:01:43.933Z,0
2018-03-02T04:02:45.357Z,0
2018-03-02T04:03:46.953Z,0
2018-03-02T04:04:48.459Z,0
2018-03-02T04:05:50.014Z,0
2018-03-02T04:06:51.511Z,0
2018-03-02T04:07:53.001Z,0
2018-03-02T04:08:54.522Z,0
2018-03-02T04:09:56.045Z,0
2018-03-02T04:10:57.522Z,0
2018-03-02T04:11:59.049Z,0
2018-03-02T04:13:00.545Z,0
2018-03-02T04:14:02.029Z,0
2018-03-02T04:15:03.527Z,0
2018-03-02T04:16:05.028Z,0
2018-03-02T04:17:06.525Z,0
2018-03-02T04:18:08.033Z,0
2018-03-02T04:19:09.514Z,0
2018-03-02T04:20:10.979Z,0
2018-03-02T04:21:12.433Z,0
2018-03-02T04:22:13.978Z,0
2018-03-02T04:23:15.525Z,0
2018-03-02T04:24:17.002Z,0
2018-03-02T04:25:18.529Z,0
2018-03-02T04:26:20.012Z,0
2018-03-02T04:27:21.531Z,0
2018-03-02T04:28:22.933Z,0
2018-03-02T04:29:24.494Z,0
2018-03-02T04:30:25.979Z,0
2018-03-02T04:31:27.559Z,0
2018-03-02T04:32:29.006Z,0
2018-03-02T04:33:30.523Z,0
2018-03-02T04:34:31.980Z,0
2018-03-02T04:35:33.510Z,0
2018-03-02T04:36:35.028Z,0
2018-03-02T04:37:36.468Z,0
2018-03-02T04:38:38.007Z,0
2018-03-02T04:39:39.489Z,0
2018-03-02T04:40:40.966Z,0
2018-03-02T04:41:42.432Z,0
2018-03-02T04:42:43.950Z,0
2018-03-02T04:43:45.374Z,0
2018-03-02T04:44:46.872Z,0
2018-03-02T04:45:48.330Z,0
2018-03-02T04:46:49.788Z,0
2018-03-02T04:47:51.320Z,0
2018-03-02T04:48:52.816Z,0
2018-03-02T04:49:54.318Z,0
2018-03-02T04:50:55.787Z,0
2018-03-02T04:51:57.261Z,0
2018-03-02T04:52:58.838Z,0
2018-03-02T04:54:00.312Z,0
2018-03-02T04:55:01.795Z,0
2018-03-02T04:56:03.270Z,0
2018-03-02T04:57:04.751Z,0
2018-03-02T04:58:06.234Z,0
2018-03-02T04:59:07.673Z,0
2018-03-02T05:00:09.201Z,0
2018-03-02T05:01:10.688Z,0
2018-03-02T05:02:12.133Z,0
2018-03-02T05:03:13.639Z,0
2018-03-02T05:04:15.139Z,0
2018-03-02T05:05:16.657Z,0
2018-03-02T05:06:18.172Z,0
2018-03-02T05:07:19.679Z,0
2018-03-02T05:08:21.144Z,0
2018-03-02T05:09:22.650Z,0
2018-03-02T05:10:24.107Z,0
2018-03-02T05:11:25.578Z,0
2018-03-02T05:12:27.062Z,0
2018-03-02T05:13:28.531Z,0
2018-03-02T05:14:29.993Z,0
2018-03-02T05:15:31.491Z,0
2018-03-02T05:16:32.929Z,0
2018-03-02T05:17:34.423Z,0
2018-03-02T05:18:35.899Z,0
2018-03-02T05:19:37.420Z,0
2018-03-02T05:20:38.853Z,0
2018-03-02T05:21:40.274Z,0
2018-03-02T05:22:41.748Z,0
2018-03-02T05:23:43.257Z,0
2018-03-02T05:24:44.726Z,0
2018-03-02T05:25:46.240Z,0
2018-03-02T05:26:47.720Z,4
2018-03-02T05:27:49.168Z,0
2018-03-02T05:28:50.647Z,0
2018-03-02T05:29:52.204Z,4
2018-03-02T05:30:53.722Z,4
2018-03-02T05:31:55.200Z,4
2018-03-02T05:32:56.655Z,0
2018-03-02T05:33:58.157Z,4
2018-03-02T05:34:59.662Z,4
2018-03-02T05:36:01.139Z,4
2018-03-02T05:37:02.647Z,4
2018-03-02T05:38:04.185Z,8
2018-03-02T05:39:05.782Z,12
2018-03-02T05:40:07.382Z,8
2018-03-02T05:41:09.282Z,12
2018-03-02T05:42:10.836Z,16
2018-03-02T05:43:12.584Z,16
2018-03-02T05:44:14.301Z,24
2018-03-02T05:45:15.999Z,28
2018-03-02T05:46:17.481Z,32
2018-03-02T05:47:19.031Z,36
2018-03-02T05:48:20.499Z,40
2018-03-02T05:49:21.986Z,44
2018-03-02T05:50:23.503Z,52
2018-03-02T05:51:25.010Z,60
2018-03-02T05:52:26.495Z,72
2018-03-02T05:53:28.006Z,76
2018-03-02T05:54:29.531Z,88
2018-03-02T05:55:31.031Z,92
2018-03-02T05:56:32.532Z,100
2018-03-02T05:57:34.062Z,108
2018-03-02T05:58:35.547Z,120
2018-03-02T05:59:37.114Z,132
2018-03-02T06:00:38.626Z,144
2018-03-02T06:01:40.162Z,156
2018-03-02T06:02:41.667Z,176
2018-03-02T06:03:43.235Z,192
2018-03-02T06:04:44.716Z,208
2018-03-02T06:05:46.198Z,232
2018-03-02T06:06:47.707Z,256
2018-03-02T06:07:49.240Z,284
2018-03-02T06:08:50.739Z,312
2018-03-02T06:09:52.342Z,340
2018-03-02T06:10:53.816Z,356
2018-03-02T06:11:55.335Z,372
2018-03-02T06:12:56.980Z,388
2018-03-02T06:13:58.497Z,400
2018-03-02T06:15:00.073Z,408
2018-03-02T06:16:01.594Z,412
2018-03-02T06:17:03.773Z,416
2018-03-02T06:18:05.649Z,432
2018-03-02T06:19:07.175Z,448
2018-03-02T06:20:08.712Z,460
2018-03-02T06:21:10.462Z,488
2018-03-02T06:22:11.953Z,524
2018-03-02T06:23:13.965Z,572
2018-03-02T06:24:15.760Z,632
2018-03-02T06:25:17.483Z,696
2018-03-02T06:26:19.424Z,772
2018-03-02T06:27:20.910Z,836
2018-03-02T06:28:23.119Z,884
2018-03-02T06:30:05.530Z,924
2018-03-02T06:31:07.329Z,924
2018-03-02T06:32:09.107Z,900
2018-03-02T06:33:50.232Z,812
2018-03-02T06:34:51.693Z,764
2018-03-02T06:35:53.977Z,748
2018-03-02T06:36:55.272Z,748
2018-03-02T06:37:57.195Z,748
2018-03-02T06:38:58.734Z,740
2018-03-02T06:40:01.024Z,740
2018-03-02T06:41:02.821Z,740
2018-03-02T06:42:04.482Z,740
2018-03-02T06:43:06.292Z,744
2018-03-02T06:44:08.184Z,760
2018-03-02T06:45:09.669Z,780
2018-03-02T06:46:11.229Z,816
2018-03-02T06:47:13.665Z,864
2018-03-02T06:48:15.262Z,920
2018-03-02T06:49:17.054Z,984
2018-03-02T06:50:18.560Z,1060
2018-03-02T06:51:20.145Z,1140
2018-03-02T06:52:21.773Z,1216
2018-03-02T06:53:23.436Z,1288
2018-03-02T06:54:25.335Z,1344
2018-03-02T06:55:26.920Z,1384
2018-03-02T06:56:29.086Z,1392
2018-03-02T06:57:30.699Z,1388
2018-03-02T06:58:32.367Z,1388
2018-03-02T06:59:34.015Z,1384
2018-03-02T07:00:35.645Z,1384
2018-03-02T07:01:37.236Z,1388
2018-03-02T07:02:38.782Z,1408
2018-03-02T07:03:40.332Z,1428
2018-03-02T07:04:41.997Z,1444
2018-03-02T07:05:43.921Z,1472
2018-03-02T07:06:46.079Z,1504
2018-03-02T07:07:47.985Z,1544
2018-03-02T07:08:49.529Z,1596
2018-03-02T07:09:51.237Z,1648
2018-03-02T07:10:52.827Z,1688
2018-03-02T07:11:54.496Z,1720
2018-03-02T07:12:56.270Z,1756
2018-03-02T07:13:58.037Z,1812
2018-03-02T07:14:59.804Z,1824
2018-03-02T07:16:01.318Z,1828
2018-03-02T07:17:04.916Z,1824
2018-03-02T07:18:06.602Z,1840
2018-03-02T07:19:08.203Z,1884
2018-03-02T07:20:09.675Z,1896
2018-03-02T07:21:11.279Z,1936
2018-03-02T07:22:12.862Z,1972
2018-03-02T07:23:15.035Z,1984
2018-03-02T07:24:15.942Z,1908
2018-03-02T07:25:17.517Z,1916
2018-03-02T07:26:19.126Z,1980
2018-03-02T07:27:20.676Z,2068
2018-03-02T07:28:22.212Z,2168
2018-03-02T07:29:23.818Z,2236
2018-03-02T07:30:25.369Z,2264
2018-03-02T07:31:26.845Z,2328
2018-03-02T07:32:28.360Z,2444
2018-03-02T07:33:29.850Z,2632
2018-03-02T07:34:31.360Z,2992
2018-03-02T07:35:33.012Z,3236
2018-03-02T07:36:34.482Z,3440
2018-03-02T07:37:36.034Z,3428
2018-03-02T07:38:37.512Z,3432
2018-03-02T07:39:39.057Z,3680
2018-03-02T07:40:40.636Z,3852
2018-03-02T07:41:42.178Z,3988
2018-03-02T07:42:43.666Z,4052
2018-03-02T07:43:45.224Z,3980
2018-03-02T07:44:46.804Z,3804
2018-03-02T07:45:48.379Z,3640
2018-03-02T07:46:49.969Z,3684
2018-03-02T07:47:51.458Z,3908
2018-03-02T07:48:52.955Z,3924
2018-03-02T07:49:54.532Z,4152
2018-03-02T07:50:56.081Z,4276
2018-03-02T07:51:57.673Z,4308
2018-03-02T07:52:59.268Z,4340
2018-03-02T07:54:00.913Z,4240
2018-03-02T07:55:02.502Z,4112
2018-03-02T07:56:04.126Z,4076
2018-03-02T07:57:05.807Z,4228
2018-03-02T07:58:07.328Z,4412
2018-03-02T07:59:08.879Z,4452
2018-03-02T08:00:10.458Z,4400
2018-03-02T08:01:12.179Z,4420
2018-03-02T08:02:13.764Z,4436
2018-03-02T08:03:15.288Z,4380
2018-03-02T08:04:16.814Z,4360
2018-03-02T08:05:18.460Z,4424
2018-03-02T08:06:20.006Z,4568
2018-03-02T08:07:21.506Z,4912
2018-03-02T08:08:23.098Z,4872
2018-03-02T08:09:24.679Z,4976
2018-03-02T08:10:26.245Z,5296
2018-03-02T08:11:27.794Z,5540
2018-03-02T08:12:29.273Z,5464
2018-03-02T08:13:30.773Z,5356
2018-03-02T08:14:32.269Z,5164
2018-03-02T08:15:34.741Z,4916
2018-03-02T08:16:36.303Z,4532
2018-03-02T08:17:37.812Z,4444
2018-03-02T08:18:39.502Z,4496
2018-03-02T08:19:41.082Z,4660
2018-03-02T08:20:42.697Z,4984
2018-03-02T08:21:44.191Z,5240
2018-03-02T08:22:45.736Z,5272
2018-03-02T08:23:47.263Z,5236
2018-03-02T08:24:48.816Z,5152
2018-03-02T08:25:50.412Z,5152
2018-03-02T08:26:51.906Z,5356
2018-03-02T08:27:53.442Z,5460
2018-03-02T08:28:54.975Z,5516
2018-03-02T08:29:56.498Z,5528
2018-03-02T08:30:58.133Z,5616
2018-03-02T08:31:59.675Z,5600
2018-03-02T08:33:01.138Z,5528
2018-03-02T08:34:02.693Z,5312
2018-03-02T08:35:04.465Z,4844
2018-03-02T08:36:05.999Z,4848
2018-03-02T08:37:07.568Z,4664
2018-03-02T08:38:09.064Z,4540
2018-03-02T08:39:10.624Z,4280
2018-03-02T08:40:12.213Z,4420
2018-03-02T08:41:13.771Z,4536
2018-03-02T08:42:15.213Z,4596
2018-03-02T08:43:16.820Z,4576
2018-03-02T08:44:18.364Z,4676
2018-03-02T08:45:19.906Z,4672
2018-03-02T08:46:21.434Z,4660
2018-03-02T08:47:23.001Z,4604
2018-03-02T08:48:24.648Z,4556
2018-03-02T08:49:26.187Z,4680
2018-03-02T08:50:27.698Z,4712
2018-03-02T08:51:29.282Z,4812
2018-03-02T08:52:30.792Z,4796
2018-03-02T08:53:32.353Z,5020
2018-03-02T08:54:33.869Z,4960
2018-03-02T08:55:35.399Z,4664
2018-03-02T08:56:36.979Z,4348
2018-03-02T08:57:38.529Z,4120
2018-03-02T08:58:40.095Z,4152
2018-03-02T08:59:41.654Z,4200
2018-03-02T09:00:43.280Z,4268
2018-03-02T09:01:44.817Z,4328
2018-03-02T09:02:46.532Z,4376
2018-03-02T09:03:48.073Z,4716
2018-03-02T09:04:49.644Z,4988
2018-03-02T09:05:51.211Z,5248
2018-03-02T09:06:52.730Z,5320
2018-03-02T09:07:54.291Z,5200
2018-03-02T09:08:55.884Z,5132
2018-03-02T09:09:57.680Z,5096
2018-03-02T09:10:59.350Z,5040
2018-03-02T09:12:01.067Z,5044
2018-03-02T09:13:02.816Z,5116
2018-03-02T09:14:04.508Z,5276
2018-03-02T09:15:06.160Z,5336
2018-03-02T09:16:07.946Z,5584
2018-03-02T09:17:09.774Z,5740
2018-03-02T09:18:11.463Z,6140
2018-03-02T09:19:13.314Z,6320
2018-03-02T09:20:14.979Z,6628
2018-03-02T09:21:16.606Z,6992
2018-03-02T09:22:18.299Z,7272
2018-03-02T09:23:20.357Z,7864
2018-03-02T09:24:22.017Z,7968
2018-03-02T09:25:23.524Z,7996
2018-03-02T09:26:25.222Z,8044
2018-03-02T09:27:27.484Z,8020
2018-03-02T09:28:28.969Z,7616
2018-03-02T09:29:30.555Z,8340
2018-03-02T09:30:32.097Z,8616
2018-03-02T09:31:33.673Z,8736
2018-03-02T09:32:35.238Z,8508
2018-03-02T09:33:36.889Z,8880
2018-03-02T09:34:38.453Z,8124
2018-03-02T09:35:39.995Z,7500
2018-03-02T09:36:41.472Z,7892
2018-03-02T09:37:43.029Z,7944
2018-03-02T09:38:44.531Z,6864
2018-03-02T09:39:46.057Z,6844
2018-03-02T09:40:47.534Z,6920
2018-03-02T09:41:49.045Z,7492
2018-03-02T09:42:50.588Z,8536
2018-03-02T09:43:52.075Z,8736
2018-03-02T09:44:53.611Z,9536
2018-03-02T09:45:55.095Z,9044
2018-03-02T09:46:57.120Z,9416
2018-03-02T09:47:58.662Z,9628
2018-03-02T09:49:00.133Z,9900
2018-03-02T09:50:01.695Z,9544
2018-03-02T09:51:03.184Z,9076
2018-03-02T09:52:04.696Z,8952
2018-03-02T09:53:06.187Z,9520
2018-03-02T09:54:07.790Z,9896
2018-03-02T09:55:09.337Z,9684
2018-03-02T09:56:10.847Z,8308
2018-03-02T09:57:12.325Z,7852
2018-03-02T09:58:13.876Z,8348
2018-03-02T09:59:15.332Z,8668
2018-03-02T10:00:16.881Z,8936
2018-03-02T10:01:18.347Z,9500
2018-03-02T10:02:19.849Z,9572
2018-03-02T10:03:21.407Z,9600
2018-03-02T10:04:22.921Z,9708
2018-03-02T10:05:24.513Z,9520
2018-03-02T10:06:26.034Z,9272
2018-03-02T10:07:27.518Z,9896
2018-03-02T10:08:29.038Z,9956
2018-03-02T10:09:30.590Z,9824
2018-03-02T10:10:32.024Z,9140
2018-03-02T10:11:33.706Z,9372
2018-03-02T10:12:35.200Z,10360
2018-03-02T10:13:36.691Z,11096
2018-03-02T10:14:38.198Z,11256
2018-03-02T10:15:39.799Z,11348
2018-03-02T10:16:41.329Z,11732
2018-03-02T10:17:42.811Z,12220
2018-03-02T10:18:44.400Z,12608
2018-03-02T10:19:45.918Z,13176
2018-03-02T10:20:47.591Z,13424
2018-03-02T10:21:49.031Z,15040
2018-03-02T10:22:50.567Z,15008
2018-03-02T10:23:52.109Z,15616
2018-03-02T10:24:53.711Z,15872
2018-03-02T10:25:55.222Z,16224
2018-03-02T10:26:56.799Z,16352
2018-03-02T10:27:58.312Z,16256
2018-03-02T10:28:59.851Z,16320
2018-03-02T10:30:01.479Z,16608
2018-03-02T10:31:03.043Z,16448
2018-03-02T10:32:04.568Z,16512
2018-03-02T10:33:06.105Z,15456
2018-03-02T10:34:07.586Z,14492
2018-03-02T10:35:09.151Z,13412
2018-03-02T10:36:10.672Z,13828
2018-03-02T10:37:12.215Z,13792
2018-03-02T10:38:13.738Z,13828
2018-03-02T10:39:15.227Z,13628
2018-03-02T10:40:16.741Z,13932
2018-03-02T10:41:18.264Z,14612
2018-03-02T10:42:19.821Z,15456
2018-03-02T10:43:21.292Z,15456
2018-03-02T10:44:22.760Z,16160
2018-03-02T10:45:24.349Z,16736
2018-03-02T10:46:25.886Z,17664
2018-03-02T10:47:27.387Z,18144
2018-03-02T10:48:28.901Z,18752
2018-03-02T10:49:30.418Z,18400
2018-03-02T10:50:31.945Z,19456
2018-03-02T10:51:33.465Z,18624
2018-03-02T10:52:35.013Z,19648
2018-03-02T10:53:36.526Z,17824
2018-03-02T10:54:38.028Z,17696
2018-03-02T10:55:39.541Z,17024
2018-03-02T10:56:41.115Z,17216
2018-03-02T10:57:42.841Z,16608
2018-03-02T10:58:44.402Z,16768
2018-03-02T10:59:45.930Z,16576
2018-03-02T11:00:47.423Z,14672
2018-03-02T11:01:49.011Z,16992
2018-03-02T11:02:50.544Z,14304
2018-03-02T11:03:52.093Z,13796
2018-03-02T11:04:53.622Z,13668
2018-03-02T11:05:55.156Z,15264
2018-03-02T11:06:56.686Z,16192
2018-03-02T11:07:58.273Z,18208
2018-03-02T11:08:59.804Z,19616
2018-03-02T11:10:01.311Z,19872
2018-03-02T11:11:03.278Z,21280
2018-03-02T11:12:04.820Z,20416
2018-03-02T11:13:06.360Z,21024
2018-03-02T11:14:07.877Z,19808
2018-03-02T11:15:09.406Z,19488
2018-03-02T11:16:10.953Z,19712
2018-03-02T11:17:12.457Z,19328
2018-03-02T11:18:13.975Z,19328
2018-03-02T11:19:15.464Z,20768
2018-03-02T11:20:16.949Z,21792
2018-03-02T11:21:18.476Z,23264
2018-03-02T11:22:19.994Z,22816
2018-03-02T11:23:21.519Z,22432
2018-03-02T11:24:23.014Z,20224
2018-03-02T11:25:24.590Z,19616
2018-03-02T11:26:26.186Z,19456
2018-03-02T11:27:27.810Z,14524
2018-03-02T11:28:29.344Z,21632
2018-03-02T11:29:30.876Z,22464
2018-03-02T11:30:32.370Z,15520
2018-03-02T11:31:33.869Z,20576
2018-03-02T11:32:35.411Z,22016
2018-03-02T11:33:36.987Z,21760
2018-03-02T11:34:38.619Z,22752
2018-03-02T11:35:40.417Z,22432
2018-03-02T11:36:42.075Z,22112
2018-03-02T11:37:43.581Z,19968
2018-03-02T11:38:45.057Z,23744
2018-03-02T11:39:46.550Z,24704
2018-03-02T11:40:48.032Z,23872
2018-03-02T11:41:49.538Z,24576
2018-03-02T11:42:51.031Z,23744
2018-03-02T11:43:52.494Z,23360
2018-03-02T11:44:54.033Z,24224
2018-03-02T11:45:55.474Z,25216
2018-03-02T11:46:56.922Z,25472
2018-03-02T11:47:58.403Z,25664
2018-03-02T11:48:59.868Z,26720
2018-03-02T11:50:01.339Z,28416
2018-03-02T11:51:02.770Z,27104
2018-03-02T11:52:04.221Z,28000
2018-03-02T11:53:05.700Z,27680
2018-03-02T11:54:07.157Z,24864
2018-03-02T11:55:08.622Z,28224
2018-03-02T11:56:10.071Z,27872
2018-03-02T11:57:11.530Z,29408
2018-03-02T11:58:12.952Z,30272
2018-03-02T11:59:14.419Z,29568
2018-03-02T12:00:15.834Z,26432
2018-03-02T12:01:17.338Z,23392
2018-03-02T12:02:18.855Z,26784
2018-03-02T12:03:20.327Z,30176
2018-03-02T12:04:21.765Z,29504
2018-03-02T12:05:23.215Z,28544
2018-03-02T12:06:24.700Z,29952
2018-03-02T12:07:26.151Z,30784
2018-03-02T12:08:28.067Z,24896
2018-03-02T12:09:29.532Z,19968
2018-03-02T12:10:30.953Z,18496
2018-03-02T12:11:32.372Z,17440
2018-03-02T12:12:33.803Z,18624
2018-03-02T12:13:35.281Z,18144
2018-03-02T12:14:36.726Z,15680
2018-03-02T12:15:38.162Z,17280
2018-03-02T12:16:39.583Z,15488
2018-03-02T12:17:41.023Z,13352
2018-03-02T12:18:42.455Z,12132
2018-03-02T12:19:43.912Z,12456
2018-03-02T12:20:45.365Z,13464
2018-03-02T12:21:46.838Z,13416
2018-03-02T12:22:48.374Z,12680
2018-03-02T12:23:49.876Z,12368
2018-03-02T12:24:51.362Z,11968
2018-03-02T12:25:52.821Z,11576
2018-03-02T12:26:54.306Z,10872
2018-03-02T12:27:55.814Z,11348
2018-03-02T12:28:57.297Z,11948
2018-03-02T12:29:58.838Z,12260
2018-03-02T12:31:00.314Z,10888
2018-03-02T12:32:01.784Z,9672
2018-03-02T12:33:03.228Z,9548
2018-03-02T12:34:04.727Z,10084
2018-03-02T12:35:06.222Z,9776
2018-03-02T12:36:07.820Z,9828
2018-03-02T12:37:09.271Z,10448
2018-03-02T12:38:10.759Z,10628
2018-03-02T12:39:12.279Z,11704
2018-03-02T12:40:13.780Z,11732
2018-03-02T12:41:15.244Z,10880
2018-03-02T12:42:16.742Z,10384
2018-03-02T12:43:18.175Z,10816
2018-03-02T12:44:19.593Z,10712
2018-03-02T12:45:21.016Z,10828
2018-03-02T12:46:22.436Z,11176
2018-03-02T12:47:23.850Z,11748
2018-03-02T12:48:25.274Z,11788
2018-03-02T12:49:26.730Z,11752
2018-03-02T12:50:28.146Z,11456
2018-03-02T12:51:29.720Z,11512
2018-03-02T12:52:31.151Z,10600
2018-03-02T12:53:32.571Z,10552
2018-03-02T12:54:34.124Z,10620
2018-03-02T12:55:35.428Z,10608
2018-03-02T12:56:36.892Z,10996
2018-03-02T12:57:38.367Z,10812
2018-03-02T12:58:39.882Z,10944
2018-03-02T12:59:41.405Z,11824
2018-03-02T13:00:42.868Z,11916
2018-03-02T13:01:44.371Z,12316
2018-03-02T13:02:45.838Z,11964
2018-03-02T13:03:47.286Z,11444
2018-03-02T13:04:48.789Z,11444
2018-03-02T13:05:50.246Z,12224
2018-03-02T13:06:51.641Z,12684
2018-03-02T13:07:53.171Z,12448
2018-03-02T13:08:55.630Z,13880
2018-03-02T13:09:57.320Z,14816
2018-03-02T13:10:58.937Z,15872
2018-03-02T13:12:00.456Z,15008
2018-03-02T13:13:01.986Z,13044
2018-03-02T13:14:03.637Z,12792
2018-03-02T13:15:05.204Z,14200
2018-03-02T13:16:06.810Z,16608
2018-03-02T13:17:08.360Z,17728
2018-03-02T13:18:09.886Z,18880
2018-03-02T13:19:12.165Z,18208
2018-03-02T13:20:14.494Z,19328
2018-03-02T13:21:16.001Z,20832
2018-03-02T13:22:17.849Z,21600
2018-03-02T13:23:19.694Z,23008
2018-03-02T13:24:21.351Z,24224
2018-03-02T13:25:23.039Z,24736
2018-03-02T13:26:25.462Z,25312
2018-03-02T13:27:28.328Z,25344
2018-03-02T13:28:29.795Z,25120
2018-03-02T13:29:31.775Z,25440
2018-03-02T13:30:33.718Z,26080
2018-03-02T13:31:35.423Z,25600
2018-03-02T13:32:36.786Z,26272
2018-03-02T13:33:39.023Z,26080
2018-03-02T13:34:40.574Z,25568
2018-03-02T13:35:42.223Z,24928
2018-03-02T13:36:43.807Z,24736
2018-03-02T13:37:45.498Z,25120
2018-03-02T13:38:47.141Z,24960
2018-03-02T13:39:48.726Z,24736
2018-03-02T13:40:50.812Z,24000
2018-03-02T13:41:52.623Z,24320
2018-03-02T13:42:54.508Z,23680
2018-03-02T13:43:56.317Z,23488
2018-03-02T13:44:59.516Z,23776
2018-03-02T13:46:01.064Z,23424
2018-03-02T13:47:02.709Z,22240
2018-03-02T13:48:04.208Z,23008
2018-03-02T13:49:06.308Z,23040
2018-03-02T13:50:08.456Z,23232
2018-03-02T13:51:52.374Z,22496
2018-03-02T13:52:54.798Z,21472
2018-03-02T13:53:57.418Z,21568
2018-03-02T13:55:01.942Z,21120
2018-03-02T13:56:03.619Z,20096
2018-03-02T13:57:05.347Z,19168
2018-03-02T13:58:07.245Z,19968
2018-03-02T13:59:09.162Z,21280
2018-03-02T14:00:11.176Z,23872
2018-03-02T14:01:12.678Z,24864
2018-03-02T14:02:14.426Z,23328
2018-03-02T14:03:16.186Z,26752
2018-03-02T14:04:17.900Z,28992
2018-03-02T14:05:19.869Z,29600
2018-03-02T14:06:21.767Z,29696
2018-03-02T14:07:23.441Z,29600
2018-03-02T14:08:25.329Z,29536
2018-03-02T14:09:27.116Z,27584
2018-03-02T14:10:28.876Z,28128